Time;durP1;ratioP1;P1;durP2;ratioP2;P2;SDS_P1;SDS_P2;PMS_P1;PMS_P2;Temp;Humidity;BMP_temperature;BMP_pressure;BME280_temperature;BME280_humidity;BME280_pressure;Samples;Min_cycle;Max_cycle;Signal;HPM_P1;HPM_P2
2022/03/21 00:00:46;;;;;;;111.47;45.37;;;;;;;;;;5071193;28;20482;-67
2022/03/21 00:03:14;;;;;;;101.57;43.67;;;;;;;;;;5071095;28;20950;-66
2022/03/21 00:05:41;;;;;;;100.40;44.60;;;;;;;;;;5070773;28;20435;-66
2022/03/21 00:08:08;;;;;;;107.20;47.03;;;;;;;;;;5064810;28;20771;-67
2022/03/21 00:10:35;;;;;;;95.83;42.53;;;;;;;;;;5091538;28;20417;-66
2022/03/21 00:13:30;;;;;;;87.17;38.60;;;;;;;;;;5091514;28;20429;-67
2022/03/21 00:16:18;;;;;;;90.87;41.33;;;;;;;;;;5027018;28;20450;-67
2022/03/21 00:19:37;;;;;;;99.97;43.60;;;;;;;;;;5089649;28;20466;-66
2022/03/21 00:22:15;;;;;;;97.00;42.40;;;;;;;;;;5091060;28;20528;-67
2022/03/21 00:25:11;;;;;;;102.63;42.10;;;;;;;;;;5090700;28;20527;-67
2022/03/21 00:27:45;;;;;;;91.13;41.87;;;;;;;;;;5089592;28;20815;-66
2022/03/21 00:30:28;;;;;;;93.47;41.30;;;;;;;;;;5070649;28;20515;-66
2022/03/21 00:33:02;;;;;;;92.50;40.57;;;;;;;;;;5090036;28;20442;-67
2022/03/21 00:35:42;;;;;;;115.30;47.23;;;;;;;;;;5071843;28;21052;-66
2022/03/21 00:38:27;;;;;;;105.07;45.17;;;;;;;;;;5089705;28;20434;-66
2022/03/21 00:41:02;;;;;;;109.57;45.60;;;;;;;;;;5090534;28;20466;-66
2022/03/21 00:43:33;;;;;;;123.63;50.23;;;;;;;;;;5064919;28;21073;-66
2022/03/21 00:46:25;;;;;;;114.20;45.40;;;;;;;;;;5069981;28;20785;-66
2022/03/21 00:49:24;;;;;;;105.37;44.23;;;;;;;;;;5070278;28;20446;-66
2022/03/21 00:52:11;;;;;;;108.13;45.70;;;;;;;;;;5070010;28;21194;-66
2022/03/21 00:54:55;;;;;;;120.13;46.27;;;;;;;;;;5069057;28;21088;-66
2022/03/21 00:57:23;;;;;;;106.43;46.90;;;;;;;;;;5067831;28;20446;-66
2022/03/21 01:00:02;;;;;;;109.70;47.83;;;;;;;;;;5061258;28;20443;-66
2022/03/21 01:03:00;;;;;;;102.80;44.30;;;;;;;;;;5048781;28;20492;-66
2022/03/21 01:38:12;;;;;;;100.47;45.23;;;;;;;;;;5049586;28;20479;-66
2022/03/21 01:40:52;;;;;;;105.70;46.37;;;;;;;;;;5048261;28;20478;-66
2022/03/21 01:43:58;;;;;;;107.27;46.40;;;;;;;;;;5044933;28;20570;-66
2022/03/21 01:46:37;;;;;;;98.67;43.30;;;;;;;;;;5029611;28;20472;-66
2022/03/21 01:49:04;;;;;;;120.10;48.13;;;;;;;;;;5029301;28;20435;-66
2022/03/21 01:51:31;;;;;;;103.70;45.60;;;;;;;;;;5029411;28;20475;-66
2022/03/21 01:56:52;;;;;;;121.43;46.03;;;;;;;;;;5028070;28;20476;-66
2022/03/21 01:59:21;;;;;;;119.70;48.50;;;;;;;;;;5026515;28;20469;-66
2022/03/21 02:01:54;;;;;;;105.90;46.00;;;;;;;;;;5028382;28;20468;-66
2022/03/21 02:04:55;;;;;;;109.53;47.23;;;;;;;;;;5000599;28;20534;-66
2022/03/21 02:07:56;;;;;;;110.47;46.47;;;;;;;;;;5028464;28;20486;-66
2022/03/21 02:10:29;;;;;;;111.27;48.27;;;;;;;;;;5031085;28;20454;-66
2022/03/21 02:13:00;;;;;;;105.70;47.03;;;;;;;;;;5046959;28;20450;-66
2022/03/21 02:15:41;;;;;;;108.03;44.60;;;;;;;;;;5049216;28;20423;-66
2022/03/21 02:18:17;;;;;;;98.23;44.13;;;;;;;;;;5031915;28;20543;-66
2022/03/21 02:20:46;;;;;;;105.10;43.83;;;;;;;;;;5048400;28;20465;-66
2022/03/21 02:23:22;;;;;;;104.07;45.47;;;;;;;;;;5062090;28;20824;-66
2022/03/21 02:25:56;;;;;;;102.40;46.17;;;;;;;;;;5037392;28;20506;-66
2022/03/21 02:28:25;;;;;;;101.43;42.03;;;;;;;;;;5027293;28;20459;-66
2022/03/21 02:30:54;;;;;;;114.47;46.43;;;;;;;;;;5011590;28;20461;-66
2022/03/21 02:33:29;;;;;;;108.80;45.60;;;;;;;;;;5026714;28;20439;-66
2022/03/21 02:36:16;;;;;;;105.23;46.43;;;;;;;;;;5027092;28;20431;-66
2022/03/21 02:39:06;;;;;;;117.57;46.93;;;;;;;;;;5012084;28;20459;-66
2022/03/21 02:41:40;;;;;;;97.07;42.90;;;;;;;;;;5028187;28;20456;-66
2022/03/21 02:44:07;;;;;;;95.27;41.23;;;;;;;;;;5048046;28;20960;-66
2022/03/21 02:46:34;;;;;;;91.97;42.63;;;;;;;;;;5048830;28;20994;-66
2022/03/21 02:49:01;;;;;;;92.73;41.53;;;;;;;;;;5047218;28;20443;-66
2022/03/21 02:51:28;;;;;;;96.80;42.73;;;;;;;;;;5048352;28;20494;-66
2022/03/21 02:53:54;;;;;;;101.70;42.93;;;;;;;;;;5047346;28;20428;-66
2022/03/21 02:56:21;;;;;;;94.87;41.40;;;;;;;;;;5046745;28;20473;-66
2022/03/21 02:58:48;;;;;;;91.73;41.50;;;;;;;;;;5047963;28;20788;-66
2022/03/21 03:01:16;;;;;;;94.93;40.77;;;;;;;;;;5047266;28;20559;-66
2022/03/21 03:04:00;;;;;;;95.13;41.47;;;;;;;;;;5047948;28;20401;-66
2022/03/21 03:06:27;;;;;;;98.13;41.73;;;;;;;;;;5048368;28;20436;-66
2022/03/21 03:09:12;;;;;;;94.37;39.77;;;;;;;;;;5048300;28;20412;-66
2022/03/21 03:11:38;;;;;;;91.67;40.63;;;;;;;;;;5048150;28;21329;-66
2022/03/21 03:14:22;;;;;;;83.93;39.93;;;;;;;;;;5047954;28;20515;-66
2022/03/21 03:16:49;;;;;;;96.30;41.20;;;;;;;;;;5048353;28;20432;-66
2022/03/21 03:19:16;;;;;;;93.13;39.67;;;;;;;;;;5048148;28;20441;-66
2022/03/21 03:21:46;;;;;;;88.03;40.23;;;;;;;;;;5047811;28;21183;-65
2022/03/21 03:24:13;;;;;;;96.67;40.77;;;;;;;;;;5047795;28;20440;-66
2022/03/21 03:26:42;;;;;;;87.47;39.93;;;;;;;;;;5065150;28;20445;-67
2022/03/21 03:29:09;;;;;;;96.13;39.47;;;;;;;;;;5067497;28;20442;-66
2022/03/21 03:31:36;;;;;;;98.23;40.40;;;;;;;;;;5069844;28;20834;-67
2022/03/21 03:34:03;;;;;;;88.53;39.50;;;;;;;;;;5066890;28;20449;-67
2022/03/21 03:36:30;;;;;;;75.00;36.67;;;;;;;;;;5067993;28;20451;-67
2022/03/21 03:38:57;;;;;;;87.67;37.67;;;;;;;;;;5066710;28;20450;-67
2022/03/21 03:41:42;;;;;;;90.10;39.13;;;;;;;;;;5066594;28;20837;-67
2022/03/21 03:44:10;;;;;;;92.63;40.07;;;;;;;;;;5087942;28;20495;-67
2022/03/21 03:46:37;;;;;;;100.00;42.77;;;;;;;;;;5088899;28;20433;-67
2022/03/21 03:49:19;;;;;;;99.70;41.20;;;;;;;;;;5091532;28;20433;-67
2022/03/21 03:52:23;;;;;;;87.53;38.07;;;;;;;;;;5041466;28;20447;-66
2022/03/21 03:55:19;;;;;;;82.97;36.27;;;;;;;;;;5069814;28;20464;-66
2022/03/21 03:58:03;;;;;;;82.70;36.07;;;;;;;;;;5070820;28;20443;-66
2022/03/21 04:00:30;;;;;;;92.57;40.50;;;;;;;;;;5053505;28;20445;-67
2022/03/21 04:05:42;;;;;;;100.97;38.93;;;;;;;;;;5070851;28;20486;-66
2022/03/21 04:08:09;;;;;;;94.63;40.30;;;;;;;;;;5081918;28;21195;-67
2022/03/21 04:10:35;;;;;;;83.47;39.60;;;;;;;;;;5091479;28;20823;-67
2022/03/21 04:13:02;;;;;;;82.93;37.80;;;;;;;;;;5090911;28;20420;-67
2022/03/21 04:15:30;;;;;;;96.90;41.33;;;;;;;;;;5091281;28;20433;-66
2022/03/21 04:18:00;;;;;;;87.50;40.20;;;;;;;;;;5090786;28;20431;-67
2022/03/21 04:20:29;;;;;;;82.33;40.47;;;;;;;;;;5091215;28;20481;-66
2022/03/21 04:23:13;;;;;;;84.87;36.53;;;;;;;;;;5090974;28;20456;-67
2022/03/21 04:25:40;;;;;;;90.63;40.47;;;;;;;;;;5071322;28;20481;-66
2022/03/21 04:28:24;;;;;;;80.70;38.53;;;;;;;;;;5070785;28;20472;-67
2022/03/21 04:30:50;;;;;;;90.47;42.27;;;;;;;;;;5070839;28;20433;-67
2022/03/21 04:33:17;;;;;;;89.70;38.60;;;;;;;;;;5070306;28;20434;-67
2022/03/21 04:35:44;;;;;;;88.57;39.40;;;;;;;;;;5052735;28;20430;-67
2022/03/21 04:38:14;;;;;;;91.30;40.47;;;;;;;;;;5070815;28;20433;-67
2022/03/21 04:40:47;;;;;;;87.00;37.57;;;;;;;;;;5070283;28;20457;-67
2022/03/21 04:43:14;;;;;;;88.87;38.30;;;;;;;;;;5070193;28;20509;-67
2022/03/21 04:45:58;;;;;;;89.43;39.10;;;;;;;;;;5070892;28;20437;-67
2022/03/21 04:48:34;;;;;;;83.27;39.07;;;;;;;;;;5069104;28;20540;-68
2022/03/21 04:51:01;;;;;;;86.47;38.17;;;;;;;;;;5052343;28;20481;-68
2022/03/21 04:53:28;;;;;;;88.07;39.73;;;;;;;;;;5064667;28;20936;-71
2022/03/21 04:55:55;;;;;;;84.43;37.20;;;;;;;;;;5069483;28;20464;-73
2022/03/21 04:58:22;;;;;;;89.53;39.50;;;;;;;;;;5074367;28;21039;-72
2022/03/21 05:00:49;;;;;;;82.23;37.50;;;;;;;;;;5056111;28;20502;-71
2022/03/21 05:03:16;;;;;;;85.17;38.57;;;;;;;;;;5062681;28;21238;-72
2022/03/21 05:05:43;;;;;;;77.17;36.43;;;;;;;;;;5077887;28;20427;-71
2022/03/21 05:08:10;;;;;;;77.50;36.43;;;;;;;;;;5056427;28;21008;-69
2022/03/21 05:10:36;;;;;;;77.63;36.10;;;;;;;;;;5060498;28;20448;-72
2022/03/21 05:13:03;;;;;;;75.17;34.90;;;;;;;;;;5079509;28;20515;-71
2022/03/21 05:15:30;;;;;;;80.87;36.87;;;;;;;;;;5079802;28;20959;-67
2022/03/21 05:17:57;;;;;;;77.60;36.90;;;;;;;;;;5078720;28;20434;-68
2022/03/21 05:20:25;;;;;;;79.33;36.30;;;;;;;;;;5058614;28;20430;-68
2022/03/21 05:31:08;;;;;;;76.23;39.13;;;;;;;;;;5077163;28;21090;-69
2022/03/21 05:36:26;;;;;;;76.20;37.63;;;;;;;;;;5079379;28;20437;-70
2022/03/21 05:38:54;;;;;;;85.57;39.73;;;;;;;;;;5082219;28;20443;-70
2022/03/21 05:41:21;;;;;;;86.03;41.00;;;;;;;;;;5074283;28;20467;-68
2022/03/21 05:43:47;;;;;;;87.60;40.80;;;;;;;;;;5076696;28;20484;-69
2022/03/21 05:46:15;;;;;;;85.43;41.27;;;;;;;;;;5067828;28;20445;-69
2022/03/21 05:48:52;;;;;;;75.47;37.27;;;;;;;;;;5075734;28;20448;-73
2022/03/21 05:51:22;;;;;;;72.33;37.97;;;;;;;;;;5078343;28;20435;-71
2022/03/21 05:53:50;;;;;;;72.37;36.70;;;;;;;;;;5064758;28;20946;-68
2022/03/21 05:56:18;;;;;;;77.20;38.27;;;;;;;;;;5074425;28;20439;-72
2022/03/21 05:58:45;;;;;;;76.47;39.17;;;;;;;;;;5068172;28;20428;-72
2022/03/21 06:01:12;;;;;;;72.43;37.20;;;;;;;;;;5077763;28;20443;-68
2022/03/21 06:03:39;;;;;;;74.37;38.47;;;;;;;;;;5087585;28;20424;-68
2022/03/21 06:06:06;;;;;;;70.13;38.07;;;;;;;;;;5069534;28;20439;-68
2022/03/21 06:08:33;;;;;;;79.03;40.43;;;;;;;;;;5069854;28;20887;-69
2022/03/21 06:11:08;;;;;;;74.87;39.80;;;;;;;;;;5087352;28;20445;-68
2022/03/21 06:13:35;;;;;;;76.57;42.50;;;;;;;;;;5088373;28;20435;-68
2022/03/21 06:16:04;;;;;;;77.93;43.50;;;;;;;;;;5087669;28;20431;-68
2022/03/21 06:18:31;;;;;;;74.17;41.60;;;;;;;;;;5041026;28;20437;-69
2022/03/21 06:21:16;;;;;;;77.47;42.17;;;;;;;;;;5076408;28;20412;-68
2022/03/21 06:23:43;;;;;;;76.73;41.43;;;;;;;;;;5069707;28;21103;-68
2022/03/21 06:26:09;;;;;;;73.73;40.80;;;;;;;;;;5086789;28;20524;-68
2022/03/21 06:28:36;;;;;;;86.97;45.50;;;;;;;;;;5080662;28;20438;-69
2022/03/21 06:31:03;;;;;;;82.10;47.23;;;;;;;;;;5070772;28;20440;-69
2022/03/21 06:33:31;;;;;;;92.27;49.30;;;;;;;;;;5077817;28;20420;-68
2022/03/21 06:35:58;;;;;;;92.47;48.83;;;;;;;;;;5077090;28;20458;-68
2022/03/21 06:38:25;;;;;;;103.50;48.40;;;;;;;;;;5087068;28;20456;-68
2022/03/21 06:40:52;;;;;;;84.67;46.57;;;;;;;;;;5086731;28;20438;-68
2022/03/21 06:43:22;;;;;;;85.70;46.77;;;;;;;;;;5069215;28;21264;-67
2022/03/21 06:45:51;;;;;;;91.10;46.17;;;;;;;;;;5087548;28;20445;-68
2022/03/21 06:48:18;;;;;;;85.23;47.27;;;;;;;;;;5086622;28;21287;-68
2022/03/21 06:50:48;;;;;;;84.97;45.53;;;;;;;;;;5087273;28;20435;-68
2022/03/21 06:53:15;;;;;;;84.83;45.00;;;;;;;;;;5085536;28;21007;-68
2022/03/21 06:55:42;;;;;;;83.40;45.53;;;;;;;;;;5075288;28;20530;-67
2022/03/21 06:58:11;;;;;;;84.40;46.23;;;;;;;;;;5087375;28;20431;-71
2022/03/21 07:00:39;;;;;;;84.27;46.03;;;;;;;;;;5069235;28;20450;-70
2022/03/21 07:03:10;;;;;;;80.47;45.83;;;;;;;;;;5059606;28;20562;-70
2022/03/21 07:05:37;;;;;;;78.13;45.57;;;;;;;;;;5068005;28;20519;-68
2022/03/21 07:08:05;;;;;;;75.40;43.93;;;;;;;;;;5073280;28;20517;-75
2022/03/21 07:10:49;;;;;;;82.87;45.23;;;;;;;;;;5076207;28;20803;-74
2022/03/21 07:13:16;;;;;;;82.17;46.17;;;;;;;;;;5061228;28;20607;-73
2022/03/21 07:15:44;;;;;;;76.87;46.10;;;;;;;;;;5063125;28;20207;-72
2022/03/21 07:18:11;;;;;;;78.43;46.47;;;;;;;;;;5075531;28;20199;-73
2022/03/21 07:20:42;;;;;;;79.97;45.80;;;;;;;;;;5072190;28;20178;-70
2022/03/21 07:23:09;;;;;;;70.90;46.80;;;;;;;;;;5057958;28;20773;-71
2022/03/21 07:25:36;;;;;;;69.13;43.50;;;;;;;;;;5070613;28;20182;-70
2022/03/21 07:28:03;;;;;;;67.93;43.80;;;;;;;;;;5081069;28;20194;-69
2022/03/21 07:30:30;;;;;;;69.83;45.80;;;;;;;;;;5058429;28;20189;-69
2022/03/21 07:32:59;;;;;;;71.97;46.23;;;;;;;;;;5061044;28;20184;-75
2022/03/21 07:35:26;;;;;;;78.63;50.03;;;;;;;;;;5068400;28;20185;-75
2022/03/21 07:37:57;;;;;;;79.13;51.60;;;;;;;;;;5079675;28;20189;-75
2022/03/21 07:40:25;;;;;;;74.63;51.10;;;;;;;;;;5079851;28;20679;-72
2022/03/21 07:42:52;;;;;;;80.77;50.23;;;;;;;;;;5067183;28;20238;-70
2022/03/21 07:48:05;;;;;;;64.27;42.47;;;;;;;;;;5044639;28;20191;-69
2022/03/21 07:50:32;;;;;;;73.30;43.87;;;;;;;;;;5044782;28;20832;-72
2022/03/21 07:52:59;;;;;;;68.77;43.07;;;;;;;;;;5042922;28;20975;-70
2022/03/21 07:55:31;;;;;;;65.60;41.57;;;;;;;;;;5046890;28;20203;-73
2022/03/21 07:58:00;;;;;;;64.13;41.77;;;;;;;;;;5041609;28;20210;-69
2022/03/21 08:00:27;;;;;;;70.07;42.20;;;;;;;;;;5028311;28;20215;-78
2022/03/21 08:02:54;;;;;;;63.63;40.43;;;;;;;;;;5046724;28;20356;-70
2022/03/21 08:05:21;;;;;;;53.47;35.73;;;;;;;;;;5051458;28;20176;-72
2022/03/21 08:07:48;;;;;;;51.73;32.23;;;;;;;;;;5043147;28;20199;-71
2022/03/21 08:10:16;;;;;;;45.33;29.33;;;;;;;;;;5046686;28;20187;-72
2022/03/21 08:12:42;;;;;;;48.87;30.27;;;;;;;;;;5031787;28;20214;-72
2022/03/21 08:15:27;;;;;;;52.80;31.53;;;;;;;;;;5030323;28;21112;-71
2022/03/21 08:17:57;;;;;;;27.33;17.27;;;;;;;;;;5031567;28;20271;-71
2022/03/21 08:20:24;;;;;;;23.83;14.13;;;;;;;;;;5029801;28;20659;-71
2022/03/21 08:22:52;;;;;;;16.83;12.20;;;;;;;;;;5030349;28;20290;-74
2022/03/21 08:25:22;;;;;;;17.33;11.50;;;;;;;;;;5043828;28;20433;-75
2022/03/21 08:28:07;;;;;;;18.93;12.40;;;;;;;;;;5044189;28;20187;-75
2022/03/21 08:30:35;;;;;;;17.10;10.63;;;;;;;;;;5045408;28;20880;-73
2022/03/21 08:33:03;;;;;;;17.90;11.73;;;;;;;;;;5042689;28;20194;-72
2022/03/21 08:35:32;;;;;;;17.40;11.30;;;;;;;;;;5044076;28;20179;-75
2022/03/21 08:37:59;;;;;;;17.43;11.50;;;;;;;;;;5042361;28;20852;-74
2022/03/21 08:40:27;;;;;;;17.00;11.03;;;;;;;;;;5045422;28;20654;-75
2022/03/21 08:43:06;;;;;;;16.50;11.10;;;;;;;;;;5062300;28;20268;-73
2022/03/21 08:46:12;;;;;;;15.83;11.50;;;;;;;;;;5071322;28;20246;-72
2022/03/21 08:51:43;;;;;;;16.43;11.83;;;;;;;;;;5075542;28;20200;-74
2022/03/21 08:54:10;;;;;;;18.40;11.10;;;;;;;;;;5078348;28;20193;-72
2022/03/21 08:56:37;;;;;;;14.07;9.87;;;;;;;;;;5069878;28;20190;-75
2022/03/21 08:59:04;;;;;;;15.07;10.17;;;;;;;;;;5079218;28;20205;-75
2022/03/21 09:01:32;;;;;;;15.53;10.70;;;;;;;;;;5063438;28;20194;-71
2022/03/21 09:04:02;;;;;;;17.73;10.70;;;;;;;;;;5070267;28;21089;-74
2022/03/21 09:06:29;;;;;;;17.50;10.73;;;;;;;;;;5078180;28;20183;-73
2022/03/21 09:08:56;;;;;;;17.03;11.50;;;;;;;;;;5079170;28;20189;-73
2022/03/21 09:11:23;;;;;;;14.83;10.10;;;;;;;;;;5079164;28;20198;-73
2022/03/21 09:13:50;;;;;;;16.27;10.30;;;;;;;;;;5078277;28;20214;-77
2022/03/21 09:16:17;;;;;;;19.20;11.60;;;;;;;;;;5073540;28;20202;-74
2022/03/21 09:18:44;;;;;;;16.40;10.60;;;;;;;;;;5078947;28;20999;-77
2022/03/21 09:21:11;;;;;;;17.03;10.80;;;;;;;;;;5075996;28;21061;-78
2022/03/21 09:23:42;;;;;;;16.33;11.33;;;;;;;;;;5079474;28;20212;-76
2022/03/21 09:26:11;;;;;;;15.40;11.17;;;;;;;;;;5057208;28;20565;-73
2022/03/21 09:28:43;;;;;;;17.67;11.33;;;;;;;;;;5076133;28;20189;-73
2022/03/21 09:31:44;;;;;;;16.60;11.50;;;;;;;;;;5073756;28;20256;-72
2022/03/21 09:34:39;;;;;;;16.23;11.43;;;;;;;;;;5071651;28;20744;-76
2022/03/21 09:37:06;;;;;;;16.17;10.73;;;;;;;;;;5071958;28;20220;-76
2022/03/21 09:39:33;;;;;;;16.83;11.10;;;;;;;;;;5078008;28;20222;-76
2022/03/21 09:42:00;;;;;;;17.60;11.47;;;;;;;;;;5072910;28;20667;-77
2022/03/21 09:44:28;;;;;;;21.27;11.90;;;;;;;;;;5073797;28;20213;-74
2022/03/21 09:46:55;;;;;;;17.77;11.70;;;;;;;;;;5072270;28;20303;-74
2022/03/21 09:49:23;;;;;;;17.10;11.40;;;;;;;;;;5068657;28;20194;-75
2022/03/21 09:51:50;;;;;;;17.43;11.53;;;;;;;;;;5061238;28;20276;-77
2022/03/21 09:54:18;;;;;;;17.00;10.97;;;;;;;;;;5081646;28;20192;-74
2022/03/21 09:56:45;;;;;;;17.20;11.50;;;;;;;;;;5057940;28;20240;-74
2022/03/21 09:59:12;;;;;;;14.93;10.43;;;;;;;;;;5060128;28;20225;-76
2022/03/21 10:01:38;;;;;;;15.97;10.87;;;;;;;;;;5055884;28;20194;-76
2022/03/21 10:04:10;;;;;;;15.40;10.53;;;;;;;;;;5077962;28;20711;-72
2022/03/21 10:06:40;;;;;;;16.37;10.80;;;;;;;;;;5076372;28;20209;-74
2022/03/21 10:09:10;;;;;;;18.07;11.13;;;;;;;;;;5054889;28;20247;-72
2022/03/21 10:11:39;;;;;;;17.27;11.17;;;;;;;;;;5074878;28;20193;-68
2022/03/21 10:14:24;;;;;;;20.93;11.10;;;;;;;;;;5058185;28;20186;-69
2022/03/21 10:16:52;;;;;;;12.77;8.23;;;;;;;;;;5072754;28;20188;-71
2022/03/21 10:19:19;;;;;;;14.90;9.00;;;;;;;;;;5077668;28;20257;-69
2022/03/21 10:22:13;;;;;;;13.57;8.70;;;;;;;;;;5075996;28;20556;-68
2022/03/21 10:24:51;;;;;;;17.83;10.70;;;;;;;;;;5077785;28;20276;-68
2022/03/21 10:27:45;;;;;;;14.03;10.00;;;;;;;;;;5060553;28;20473;-72
2022/03/21 10:30:21;;;;;;;15.27;8.83;;;;;;;;;;5062461;28;20201;-71
2022/03/21 10:32:55;;;;;;;13.93;9.30;;;;;;;;;;5075197;28;20182;-69
2022/03/21 10:35:22;;;;;;;13.73;9.40;;;;;;;;;;5067345;28;20209;-73
2022/03/21 10:37:56;;;;;;;14.10;9.13;;;;;;;;;;5076426;28;20664;-69
2022/03/21 10:40:41;;;;;;;13.70;9.40;;;;;;;;;;5072711;28;20176;-69
2022/03/21 10:43:25;;;;;;;16.20;9.43;;;;;;;;;;5080320;28;20233;-71
2022/03/21 10:45:53;;;;;;;13.60;9.50;;;;;;;;;;5076926;28;20200;-68
2022/03/21 10:48:21;;;;;;;13.17;9.10;;;;;;;;;;5075939;28;20196;-72
2022/03/21 10:50:49;;;;;;;15.53;9.57;;;;;;;;;;5080313;28;20713;-75
2022/03/21 10:53:40;;;;;;;13.97;9.57;;;;;;;;;;5073260;28;20712;-73
2022/03/21 10:56:09;;;;;;;13.67;9.43;;;;;;;;;;5068506;28;20202;-75
2022/03/21 10:58:43;;;;;;;15.50;9.90;;;;;;;;;;5075247;28;20708;-74
2022/03/21 11:01:17;;;;;;;14.50;10.10;;;;;;;;;;5078702;28;20804;-74
2022/03/21 11:03:51;;;;;;;14.03;9.33;;;;;;;;;;5079401;28;20731;-75
2022/03/21 11:06:35;;;;;;;13.73;9.50;;;;;;;;;;5084128;28;20199;-69
2022/03/21 11:09:02;;;;;;;13.53;9.00;;;;;;;;;;5081640;28;20205;-71
2022/03/21 11:11:29;;;;;;;13.13;9.00;;;;;;;;;;5086384;28;20201;-70
2022/03/21 11:13:56;;;;;;;15.60;10.13;;;;;;;;;;5082622;28;20811;-74
2022/03/21 11:16:24;;;;;;;15.83;9.83;;;;;;;;;;5061297;28;20301;-72
2022/03/21 11:18:51;;;;;;;17.17;10.93;;;;;;;;;;5078997;28;20193;-71
2022/03/21 11:21:18;;;;;;;15.03;10.87;;;;;;;;;;5053018;28;20204;-71
2022/03/21 11:24:04;;;;;;;14.50;10.60;;;;;;;;;;5087613;28;20232;-69
2022/03/21 11:26:33;;;;;;;15.90;10.47;;;;;;;;;;5084981;28;20189;-68
2022/03/21 11:29:09;;;;;;;15.67;9.87;;;;;;;;;;5066185;28;20246;-69
2022/03/21 11:32:05;;;;;;;14.73;9.50;;;;;;;;;;5073659;28;20185;-69
2022/03/21 11:34:55;;;;;;;14.53;9.93;;;;;;;;;;5037062;28;20613;-69
2022/03/21 11:37:29;;;;;;;13.97;9.80;;;;;;;;;;5055637;28;20808;-68
2022/03/21 11:40:26;;;;;;;14.00;10.20;;;;;;;;;;5090985;28;20513;-69
2022/03/21 11:42:54;;;;;;;15.90;10.07;;;;;;;;;;5087354;28;20240;-69
2022/03/21 11:45:24;;;;;;;14.27;10.03;;;;;;;;;;5072138;28;20842;-70
2022/03/21 11:48:10;;;;;;;14.63;9.37;;;;;;;;;;5061222;28;20674;-72
2022/03/21 11:50:45;;;;;;;14.03;8.67;;;;;;;;;;5072847;28;20193;-69
2022/03/21 11:53:13;;;;;;;11.67;8.90;;;;;;;;;;5076779;28;20213;-70
2022/03/21 11:55:43;;;;;;;13.53;9.10;;;;;;;;;;5079403;28;20192;-69
2022/03/21 11:58:30;;;;;;;14.83;9.37;;;;;;;;;;5080204;28;20649;-69
2022/03/21 12:01:16;;;;;;;13.40;9.80;;;;;;;;;;5057433;28;20299;-68
2022/03/21 12:03:43;;;;;;;14.67;9.30;;;;;;;;;;5057578;28;20240;-70
2022/03/21 12:06:23;;;;;;;12.67;9.67;;;;;;;;;;5052977;28;20193;-71
2022/03/21 12:08:50;;;;;;;13.73;9.77;;;;;;;;;;5077377;28;20555;-67
2022/03/21 12:11:38;;;;;;;13.07;9.80;;;;;;;;;;5072167;28;20261;-70
2022/03/21 12:14:26;;;;;;;14.13;9.73;;;;;;;;;;5081533;28;20189;-69
2022/03/21 12:17:02;;;;;;;14.97;10.47;;;;;;;;;;5074754;28;20193;-74
2022/03/21 12:19:51;;;;;;;16.90;11.17;;;;;;;;;;5075229;28;20200;-71
2022/03/21 12:22:32;;;;;;;16.53;9.77;;;;;;;;;;5081310;28;20193;-70
2022/03/21 12:25:10;;;;;;;16.60;10.73;;;;;;;;;;5056049;28;20217;-68
2022/03/21 12:27:58;;;;;;;17.20;11.10;;;;;;;;;;5076954;28;20271;-71
2022/03/21 12:30:30;;;;;;;17.43;12.40;;;;;;;;;;5072673;28;20191;-70
2022/03/21 12:33:09;;;;;;;16.00;11.57;;;;;;;;;;5081800;28;20224;-68
2022/03/21 12:35:43;;;;;;;21.37;12.03;;;;;;;;;;5056631;28;20229;-68
2022/03/21 12:38:10;;;;;;;18.83;12.27;;;;;;;;;;5080923;28;20185;-69
2022/03/21 12:40:36;;;;;;;19.43;12.37;;;;;;;;;;5078204;28;20830;-68
2022/03/21 12:43:03;;;;;;;15.80;11.97;;;;;;;;;;5072949;28;20230;-68
2022/03/21 12:45:30;;;;;;;19.63;12.17;;;;;;;;;;5056646;28;20198;-68
2022/03/21 12:48:05;;;;;;;19.93;12.83;;;;;;;;;;5076481;28;20820;-68
2022/03/21 12:50:32;;;;;;;17.83;12.43;;;;;;;;;;5058638;28;20182;-67
2022/03/21 12:53:09;;;;;;;19.03;12.10;;;;;;;;;;5073020;28;20197;-68
2022/03/21 12:55:40;;;;;;;16.37;11.27;;;;;;;;;;5062779;28;20193;-69
2022/03/21 12:58:11;;;;;;;16.37;11.67;;;;;;;;;;5060967;28;20736;-70
2022/03/21 13:00:39;;;;;;;16.03;11.00;;;;;;;;;;5065215;28;20186;-69
2022/03/21 13:03:13;;;;;;;16.10;11.13;;;;;;;;;;5074117;28;20185;-73
2022/03/21 13:11:32;;;;;;;13.70;10.67;;;;;;;;;;5058688;28;20561;-70
2022/03/21 13:14:16;;;;;;;17.87;10.37;;;;;;;;;;5079473;28;20197;-71
2022/03/21 13:16:45;;;;;;;15.83;11.07;;;;;;;;;;5076525;28;20197;-70
2022/03/21 13:19:16;;;;;;;19.40;10.63;;;;;;;;;;5078293;28;20181;-74
2022/03/21 13:21:43;;;;;;;18.10;11.33;;;;;;;;;;5077912;28;20833;-71
2022/03/21 13:24:10;;;;;;;17.13;10.40;;;;;;;;;;5078798;28;20217;-69
2022/03/21 13:26:37;;;;;;;17.77;10.67;;;;;;;;;;5080760;28;20210;-73
2022/03/21 13:29:23;;;;;;;19.57;10.90;;;;;;;;;;5078673;28;20236;-70
2022/03/21 13:31:53;;;;;;;16.53;10.83;;;;;;;;;;5076008;28;20242;-71
2022/03/21 13:34:38;;;;;;;14.90;10.67;;;;;;;;;;5081350;28;20173;-70
2022/03/21 13:37:16;;;;;;;16.73;10.63;;;;;;;;;;5075807;28;20200;-70
2022/03/21 13:39:59;;;;;;;18.23;10.73;;;;;;;;;;5046369;28;21033;-72
2022/03/21 13:42:25;;;;;;;17.17;10.57;;;;;;;;;;5073118;28;20237;-72
2022/03/21 13:44:53;;;;;;;19.10;11.07;;;;;;;;;;5056710;28;20290;-72
2022/03/21 13:47:20;;;;;;;14.03;10.27;;;;;;;;;;5076779;28;20193;-72
2022/03/21 13:50:03;;;;;;;17.23;10.33;;;;;;;;;;5072242;28;21008;-75
2022/03/21 13:52:38;;;;;;;15.60;10.13;;;;;;;;;;5073141;28;20265;-75
2022/03/21 13:55:07;;;;;;;15.57;9.83;;;;;;;;;;5077739;28;20230;-73
2022/03/21 13:57:43;;;;;;;17.83;10.40;;;;;;;;;;5079586;28;20286;-72
2022/03/21 14:00:15;;;;;;;16.93;10.43;;;;;;;;;;5072428;28;20186;-72
2022/03/21 14:02:43;;;;;;;15.93;10.77;;;;;;;;;;5076270;28;20196;-72
2022/03/21 14:05:18;;;;;;;16.97;10.53;;;;;;;;;;5080582;28;20299;-71
2022/03/21 14:07:49;;;;;;;18.33;10.20;;;;;;;;;;5076469;28;20185;-71
2022/03/21 14:10:23;;;;;;;13.80;10.20;;;;;;;;;;5070689;28;20194;-72
2022/03/21 14:12:51;;;;;;;15.57;10.13;;;;;;;;;;5080442;28;20218;-72
2022/03/21 14:15:19;;;;;;;17.03;10.23;;;;;;;;;;5064084;28;20203;-72
2022/03/21 14:17:45;;;;;;;12.90;9.60;;;;;;;;;;5072568;28;20682;-72
2022/03/21 14:20:31;;;;;;;14.17;9.50;;;;;;;;;;5071642;28;20181;-74
2022/03/21 14:22:58;;;;;;;21.33;10.00;;;;;;;;;;5074346;28;20187;-74
2022/03/21 14:28:10;;;;;;;16.70;10.30;;;;;;;;;;5073104;28;20197;-73
2022/03/21 14:30:37;;;;;;;14.63;9.50;;;;;;;;;;5062301;28;20212;-72
2022/03/21 14:33:04;;;;;;;14.30;8.47;;;;;;;;;;5069988;28;20572;-67
2022/03/21 14:35:31;;;;;;;14.73;9.90;;;;;;;;;;5088838;28;20182;-67
2022/03/21 14:37:58;;;;;;;15.77;10.23;;;;;;;;;;5088785;28;20243;-67
2022/03/21 14:40:25;;;;;;;12.90;9.07;;;;;;;;;;5088577;28;20181;-67
2022/03/21 14:42:52;;;;;;;13.40;9.13;;;;;;;;;;5074853;28;20222;-67
2022/03/21 14:45:18;;;;;;;13.70;8.90;;;;;;;;;;5067560;28;20308;-67
2022/03/21 14:47:45;;;;;;;13.23;8.73;;;;;;;;;;5068080;28;20190;-67
2022/03/21 14:50:12;;;;;;;14.60;9.93;;;;;;;;;;5065675;28;20265;-74
2022/03/21 14:52:39;;;;;;;20.83;12.57;;;;;;;;;;5078822;28;20204;-74
2022/03/21 14:55:07;;;;;;;20.30;13.03;;;;;;;;;;5074304;28;20665;-73
2022/03/21 14:57:35;;;;;;;20.37;13.20;;;;;;;;;;5055730;28;20541;-74
2022/03/21 15:00:03;;;;;;;23.70;14.23;;;;;;;;;;5075981;28;20192;-75
2022/03/21 15:02:30;;;;;;;20.70;13.77;;;;;;;;;;5077572;28;20208;-73
2022/03/21 15:04:57;;;;;;;20.70;13.83;;;;;;;;;;5058284;28;20205;-72
2022/03/21 15:07:27;;;;;;;24.13;13.23;;;;;;;;;;5075492;28;20788;-70
2022/03/21 15:12:40;;;;;;;20.70;14.00;;;;;;;;;;5077028;28;20182;-70
2022/03/21 15:15:07;;;;;;;25.80;14.50;;;;;;;;;;5077828;28;20234;-70
2022/03/21 15:17:35;;;;;;;22.37;13.60;;;;;;;;;;5074757;28;20222;-70
2022/03/21 15:20:03;;;;;;;22.17;13.20;;;;;;;;;;5074073;28;20262;-73
2022/03/21 15:22:53;;;;;;;22.93;13.70;;;;;;;;;;5057203;28;20197;-73
2022/03/21 15:25:20;;;;;;;26.20;14.87;;;;;;;;;;5059160;28;20241;-68
2022/03/21 15:28:05;;;;;;;22.77;14.10;;;;;;;;;;5070877;28;20272;-67
2022/03/21 15:30:32;;;;;;;25.80;14.27;;;;;;;;;;5074508;28;20774;-67
2022/03/21 15:32:59;;;;;;;22.67;13.77;;;;;;;;;;5069851;28;21097;-69
2022/03/21 15:35:26;;;;;;;21.67;13.40;;;;;;;;;;5070882;28;20190;-70
2022/03/21 15:43:20;;;;;;;22.70;13.33;;;;;;;;;;5073122;28;20234;-67
2022/03/21 15:45:47;;;;;;;21.87;13.10;;;;;;;;;;5077482;28;20218;-68
2022/03/21 15:48:14;;;;;;;22.00;13.00;;;;;;;;;;5053015;28;20248;-67
2022/03/21 15:50:41;;;;;;;26.70;14.80;;;;;;;;;;5073478;28;20479;-66
2022/03/21 15:53:07;;;;;;;24.50;14.67;;;;;;;;;;5078438;28;20565;-67
2022/03/21 15:55:35;;;;;;;25.37;15.30;;;;;;;;;;5077544;28;20650;-67
2022/03/21 15:58:01;;;;;;;26.50;16.03;;;;;;;;;;5073580;28;20197;-67